sensor_id;sensor_type;location;lat;lon;timestamp;pressure;altitude;pressure_sealevel;temperature;humidity
5283;BME280;15376;48.540;9.268;2022-10-16T00:00:15;97385.81;;;13.99;100.00
5283;BME280;15376;48.540;9.268;2022-10-16T00:02:41;97384.59;;;13.95;100.00
5283;BME280;15376;48.540;9.268;2022-10-16T00:05:06;97383.16;;;13.93;100.00
5283;BME280;15376;48.540;9.268;2022-10-16T00:07:31;97378.03;;;13.85;100.00
5283;BME280;15376;48.540;9.268;2022-10-16T00:09:57;97382.34;;;13.86;100.00
5283;BME280;15376;48.540;9.268;2022-10-16T00:12:22;97380.50;;;13.86;100.00
5283;BME280;15376;48.540;9.268;2022-10-16T00:14:48;97383.56;;;13.83;100.00
5283;BME280;15376;48.540;9.268;2022-10-16T00:17:13;97371.03;;;13.77;100.00
5283;BME280;15376;48.540;9.268;2022-10-16T00:19:38;97382.34;;;13.73;100.00
5283;BME280;15376;48.540;9.268;2022-10-16T00:22:04;97373.91;;;13.69;100.00
5283;BME280;15376;48.540;9.268;2022-10-16T00:24:29;97380.91;;;13.63;100.00
5283;BME280;15376;48.540;9.268;2022-10-16T00:26:54;97383.38;;;13.58;100.00
5283;BME280;15376;48.540;9.268;2022-10-16T00:29:20;97382.94;;;13.48;100.00
5283;BME280;15376;48.540;9.268;2022-10-16T00:31:45;97397.09;;;13.42;100.00
5283;BME280;15376;48.540;9.268;2022-10-16T00:34:10;97396.06;;;13.37;100.00
5283;BME280;15376;48.540;9.268;2022-10-16T00:36:35;97388.25;;;13.35;100.00
5283;BME280;15376;48.540;9.268;2022-10-16T00:39:02;97389.69;;;13.31;100.00
5283;BME280;15376;48.540;9.268;2022-10-16T00:41:28;97392.97;;;13.26;100.00
5283;BME280;15376;48.540;9.268;2022-10-16T00:43:58;97378.41;;;13.29;100.00
5283;BME280;15376;48.540;9.268;2022-10-16T00:46:27;97379.22;;;13.29;100.00
5283;BME280;15376;48.540;9.268;2022-10-16T00:49:03;97382.28;;;13.20;100.00
5283;BME280;15376;48.540;9.268;2022-10-16T00:51:37;97389.06;;;13.29;100.00
5283;BME280;15376;48.540;9.268;2022-10-16T00:54:08;97398.50;;;13.25;100.00
5283;BME280;15376;48.540;9.268;2022-10-16T00:56:34;97397.25;;;13.21;100.00
5283;BME280;15376;48.540;9.268;2022-10-16T00:59:02;97392.34;;;13.18;100.00
5283;BME280;15376;48.540;9.268;2022-10-16T01:01:28;97397.81;;;13.10;100.00
5283;BME280;15376;48.540;9.268;2022-10-16T01:03:54;97395.59;;;13.13;100.00
5283;BME280;15376;48.540;9.268;2022-10-16T01:06:23;97394.53;;;13.08;100.00
5283;BME280;15376;48.540;9.268;2022-10-16T01:09:02;97390.22;;;13.07;100.00
5283;BME280;15376;48.540;9.268;2022-10-16T01:11:38;97398.88;;;13.15;100.00
5283;BME280;15376;48.540;9.268;2022-10-16T01:14:15;97389.81;;;13.10;100.00
5283;BME280;15376;48.540;9.268;2022-10-16T01:16:49;97403.38;;;13.15;100.00
5283;BME280;15376;48.540;9.268;2022-10-16T01:22:40;97403.00;;;13.18;100.00
5283;BME280;15376;48.540;9.268;2022-10-16T01:25:15;97409.56;;;13.22;100.00
5283;BME280;15376;48.540;9.268;2022-10-16T01:27:45;97379.97;;;13.03;100.00
5283;BME280;15376;48.540;9.268;2022-10-16T01:30:23;97409.13;;;13.12;100.00
5283;BME280;15376;48.540;9.268;2022-10-16T01:32:53;97407.88;;;13.14;100.00
5283;BME280;15376;48.540;9.268;2022-10-16T01:35:27;97396.41;;;13.14;100.00
5283;BME280;15376;48.540;9.268;2022-10-16T01:40:29;97390.66;;;13.10;100.00
5283;BME280;15376;48.540;9.268;2022-10-16T01:43:03;97402.53;;;13.08;100.00
5283;BME280;15376;48.540;9.268;2022-10-16T01:45:31;97391.41;;;12.97;100.00
5283;BME280;15376;48.540;9.268;2022-10-16T01:48:00;97396.94;;;12.89;100.00
5283;BME280;15376;48.540;9.268;2022-10-16T01:50:31;97403.09;;;12.96;100.00
5283;BME280;15376;48.540;9.268;2022-10-16T01:52:59;97397.75;;;12.90;100.00
5283;BME280;15376;48.540;9.268;2022-10-16T01:55:32;97396.34;;;13.00;100.00
5283;BME280;15376;48.540;9.268;2022-10-16T01:57:59;97395.97;;;13.03;100.00
5283;BME280;15376;48.540;9.268;2022-10-16T02:00:28;97404.56;;;13.06;100.00
5283;BME280;15376;48.540;9.268;2022-10-16T02:02:54;97405.00;;;13.09;100.00
5283;BME280;15376;48.540;9.268;2022-10-16T02:07:48;97391.66;;;13.02;100.00
5283;BME280;15376;48.540;9.268;2022-10-16T02:10:13;97399.66;;;13.02;100.00
5283;BME280;15376;48.540;9.268;2022-10-16T02:12:42;97391.41;;;12.97;100.00
5283;BME280;15376;48.540;9.268;2022-10-16T02:15:09;97394.69;;;12.93;100.00
5283;BME280;15376;48.540;9.268;2022-10-16T02:17:35;97394.25;;;12.89;100.00
5283;BME280;15376;48.540;9.268;2022-10-16T02:20:01;97351.16;;;12.66;100.00
5283;BME280;15376;48.540;9.268;2022-10-16T02:22:36;97395.72;;;12.98;100.00
5283;BME280;15376;48.540;9.268;2022-10-16T02:25:10;97393.91;;;13.06;100.00
5283;BME280;15376;48.540;9.268;2022-10-16T02:30:29;97361.53;;;13.09;100.00
5283;BME280;15376;48.540;9.268;2022-10-16T02:32:58;97381.88;;;13.23;100.00
5283;BME280;15376;48.540;9.268;2022-10-16T02:35:26;97388.84;;;13.24;100.00
5283;BME280;15376;48.540;9.268;2022-10-16T02:37:53;97401.38;;;13.30;100.00
5283;BME280;15376;48.540;9.268;2022-10-16T02:40:19;97379.63;;;13.26;100.00
5283;BME280;15376;48.540;9.268;2022-10-16T02:42:50;97369.78;;;13.27;100.00
5283;BME280;15376;48.540;9.268;2022-10-16T02:45:17;97396.28;;;13.42;100.00
5283;BME280;15376;48.540;9.268;2022-10-16T02:47:43;97366.28;;;13.26;100.00
5283;BME280;15376;48.540;9.268;2022-10-16T02:50:08;97397.72;;;13.44;100.00
5283;BME280;15376;48.540;9.268;2022-10-16T02:52:34;97400.38;;;13.44;100.00
5283;BME280;15376;48.540;9.268;2022-10-16T02:54:59;97400.38;;;13.44;100.00
5283;BME280;15376;48.540;9.268;2022-10-16T02:57:25;97401.19;;;13.38;100.00
5283;BME280;15376;48.540;9.268;2022-10-16T02:59:50;97399.94;;;13.34;100.00
5283;BME280;15376;48.540;9.268;2022-10-16T03:02:15;97389.88;;;13.23;100.00
5283;BME280;15376;48.540;9.268;2022-10-16T03:04:41;97394.41;;;13.29;100.00
5283;BME280;15376;48.540;9.268;2022-10-16T03:07:06;97392.75;;;13.28;100.00
5283;BME280;15376;48.540;9.268;2022-10-16T03:09:32;97396.44;;;13.27;100.00
5283;BME280;15376;48.540;9.268;2022-10-16T03:11:58;97392.94;;;13.20;100.00
5283;BME280;15376;48.540;9.268;2022-10-16T03:14:23;97392.72;;;13.15;100.00
5283;BME280;15376;48.540;9.268;2022-10-16T03:16:48;97397.19;;;13.08;100.00
5283;BME280;15376;48.540;9.268;2022-10-16T03:19:16;97398.03;;;13.08;100.00
5283;BME280;15376;48.540;9.268;2022-10-16T03:21:41;97392.91;;;13.07;100.00
5283;BME280;15376;48.540;9.268;2022-10-16T03:24:06;97394.34;;;13.09;100.00
5283;BME280;15376;48.540;9.268;2022-10-16T03:26:32;97397.22;;;13.14;100.00
5283;BME280;15376;48.540;9.268;2022-10-16T03:28:57;97392.72;;;13.15;100.00
5283;BME280;15376;48.540;9.268;2022-10-16T03:31:22;97391.06;;;13.14;100.00
5283;BME280;15376;48.540;9.268;2022-10-16T03:33:48;97396.03;;;13.17;100.00
5283;BME280;15376;48.540;9.268;2022-10-16T03:36:13;97401.31;;;13.10;100.00
5283;BME280;15376;48.540;9.268;2022-10-16T03:38:38;97402.94;;;13.05;100.00
5283;BME280;15376;48.540;9.268;2022-10-16T03:41:04;97409.09;;;13.05;100.00
5283;BME280;15376;48.540;9.268;2022-10-16T03:43:29;97408.25;;;13.05;100.00
5283;BME280;15376;48.540;9.268;2022-10-16T03:45:55;97407.44;;;13.04;100.00
5283;BME280;15376;48.540;9.268;2022-10-16T03:48:20;97405.81;;;13.03;100.00
5283;BME280;15376;48.540;9.268;2022-10-16T03:50:45;97403.34;;;13.01;100.00
5283;BME280;15376;48.540;9.268;2022-10-16T03:53:13;97402.09;;;12.97;100.00
5283;BME280;15376;48.540;9.268;2022-10-16T03:55:41;97405.34;;;12.93;100.00
5283;BME280;15376;48.540;9.268;2022-10-16T03:58:06;97382.75;;;12.82;100.00
5283;BME280;15376;48.540;9.268;2022-10-16T04:00:31;97420.53;;;12.99;100.00
5283;BME280;15376;48.540;9.268;2022-10-16T04:02:57;97415.63;;;12.96;100.00
5283;BME280;15376;48.540;9.268;2022-10-16T04:05:22;97414.38;;;12.98;100.00
5283;BME280;15376;48.540;9.268;2022-10-16T04:07:47;97416.47;;;13.03;100.00
5283;BME280;15376;48.540;9.268;2022-10-16T04:10:13;97419.75;;;13.05;100.00
5283;BME280;15376;48.540;9.268;2022-10-16T04:12:38;97419.94;;;13.03;100.00
5283;BME280;15376;48.540;9.268;2022-10-16T04:15:04;97420.75;;;12.97;100.00
5283;BME280;15376;48.540;9.268;2022-10-16T04:17:29;97419.50;;;12.93;100.00
5283;BME280;15376;48.540;9.268;2022-10-16T04:19:54;97432.19;;;12.91;100.00
5283;BME280;15376;48.540;9.268;2022-10-16T04:22:20;97427.25;;;12.88;100.00
5283;BME280;15376;48.540;9.268;2022-10-16T04:24:45;97429.94;;;12.88;100.00
5283;BME280;15376;48.540;9.268;2022-10-16T04:27:10;97431.97;;;12.86;100.00
5283;BME280;15376;48.540;9.268;2022-10-16T04:29:36;97429.50;;;12.85;100.00
5283;BME280;15376;48.540;9.268;2022-10-16T04:32:01;97419.22;;;12.75;100.00
5283;BME280;15376;48.540;9.268;2022-10-16T04:34:26;97436.66;;;12.84;100.00
5283;BME280;15376;48.540;9.268;2022-10-16T04:36:51;97435.66;;;12.85;100.00
5283;BME280;15376;48.540;9.268;2022-10-16T04:39:17;97426.63;;;12.86;100.00
5283;BME280;15376;48.540;9.268;2022-10-16T04:41:42;97418.84;;;12.85;100.00
5283;BME280;15376;48.540;9.268;2022-10-16T04:44:07;97397.69;;;12.70;100.00
5283;BME280;15376;48.540;9.268;2022-10-16T04:46:33;97421.69;;;12.83;100.00
5283;BME280;15376;48.540;9.268;2022-10-16T04:48:58;97421.69;;;12.83;100.00
5283;BME280;15376;48.540;9.268;2022-10-16T04:51:24;97420.06;;;12.82;100.00
5283;BME280;15376;48.540;9.268;2022-10-16T04:53:50;97412.66;;;12.71;100.00
5283;BME280;15376;48.540;9.268;2022-10-16T04:56:16;97430.75;;;12.89;100.00
5283;BME280;15376;48.540;9.268;2022-10-16T04:58:41;97431.81;;;12.94;100.00
5283;BME280;15376;48.540;9.268;2022-10-16T05:01:07;97428.13;;;12.95;100.00
5283;BME280;15376;48.540;9.268;2022-10-16T05:03:32;97431.41;;;12.97;100.00
5283;BME280;15376;48.540;9.268;2022-10-16T05:05:57;97434.91;;;12.98;100.00
5283;BME280;15376;48.540;9.268;2022-10-16T05:08:23;97442.06;;;12.97;100.00
5283;BME280;15376;48.540;9.268;2022-10-16T05:10:48;97447.78;;;12.94;100.00
5283;BME280;15376;48.540;9.268;2022-10-16T05:13:14;97449.84;;;12.92;100.00
5283;BME280;15376;48.540;9.268;2022-10-16T05:15:39;97440.97;;;12.85;100.00
5283;BME280;15376;48.540;9.268;2022-10-16T05:18:05;97453.28;;;12.86;100.00
5283;BME280;15376;48.540;9.268;2022-10-16T05:20:30;97456.16;;;12.85;100.00
5283;BME280;15376;48.540;9.268;2022-10-16T05:22:55;97453.88;;;12.82;100.00
5283;BME280;15376;48.540;9.268;2022-10-16T05:25:21;97455.53;;;12.76;100.00
5283;BME280;15376;48.540;9.268;2022-10-16T05:27:49;97452.44;;;12.73;100.00
5283;BME280;15376;48.540;9.268;2022-10-16T05:30:16;97454.22;;;12.65;100.00
5283;BME280;15376;48.540;9.268;2022-10-16T05:32:46;97448.00;;;12.52;100.00
5283;BME280;15376;48.540;9.268;2022-10-16T05:35:12;97446.19;;;12.59;100.00
5283;BME280;15376;48.540;9.268;2022-10-16T05:37:37;97452.16;;;12.61;100.00
5283;BME280;15376;48.540;9.268;2022-10-16T05:40:02;97459.34;;;12.67;100.00
5283;BME280;15376;48.540;9.268;2022-10-16T05:42:29;97455.59;;;12.55;100.00
5283;BME280;15376;48.540;9.268;2022-10-16T05:44:55;97465.38;;;12.48;100.00
5283;BME280;15376;48.540;9.268;2022-10-16T05:47:20;97471.09;;;12.45;100.00
5283;BME280;15376;48.540;9.268;2022-10-16T05:49:46;97476.03;;;12.48;100.00
5283;BME280;15376;48.540;9.268;2022-10-16T05:52:11;97474.34;;;12.40;100.00
5283;BME280;15376;48.540;9.268;2022-10-16T05:54:36;97480.53;;;12.47;100.00
5283;BME280;15376;48.540;9.268;2022-10-16T05:57:02;97474.78;;;12.44;100.00
5283;BME280;15376;48.540;9.268;2022-10-16T05:59:27;97466.34;;;12.40;100.00
5283;BME280;15376;48.540;9.268;2022-10-16T06:01:52;97486.53;;;12.56;100.00
5283;BME280;15376;48.540;9.268;2022-10-16T06:04:18;97474.09;;;12.63;100.00
5283;BME280;15376;48.540;9.268;2022-10-16T06:06:44;97479.25;;;12.71;100.00
5283;BME280;15376;48.540;9.268;2022-10-16T06:09:09;97483.09;;;12.62;100.00
5283;BME280;15376;48.540;9.268;2022-10-16T06:11:36;97483.16;;;12.68;100.00
5283;BME280;15376;48.540;9.268;2022-10-16T06:14:01;97501.22;;;12.80;100.00
5283;BME280;15376;48.540;9.268;2022-10-16T06:16:31;97500.44;;;12.79;100.00
5283;BME280;15376;48.540;9.268;2022-10-16T06:18:57;97497.97;;;12.84;100.00
5283;BME280;15376;48.540;9.268;2022-10-16T06:21:25;97495.34;;;12.91;100.00
5283;BME280;15376;48.540;9.268;2022-10-16T06:23:51;97507.06;;;12.96;100.00
5283;BME280;15376;48.540;9.268;2022-10-16T06:26:18;97501.97;;;13.01;100.00
5283;BME280;15376;48.540;9.268;2022-10-16T06:28:45;97514.91;;;13.05;100.00
5283;BME280;15376;48.540;9.268;2022-10-16T06:31:12;97502.63;;;13.10;100.00
5283;BME280;15376;48.540;9.268;2022-10-16T06:33:38;97520.53;;;13.16;100.00
5283;BME280;15376;48.540;9.268;2022-10-16T06:38:30;97514.81;;;13.26;100.00
5283;BME280;15376;48.540;9.268;2022-10-16T06:40:56;97508.06;;;13.30;100.00
5283;BME280;15376;48.540;9.268;2022-10-16T06:43:22;97520.59;;;13.36;100.00
5283;BME280;15376;48.540;9.268;2022-10-16T06:45:52;97521.84;;;13.40;100.00
5283;BME280;15376;48.540;9.268;2022-10-16T06:48:17;97515.53;;;13.54;100.00
5283;BME280;15376;48.540;9.268;2022-10-16T06:50:43;97525.44;;;13.74;100.00
5283;BME280;15376;48.540;9.268;2022-10-16T06:53:08;97535.53;;;13.91;100.00
5283;BME280;15376;48.540;9.268;2022-10-16T06:55:33;97540.50;;;14.14;100.00
5283;BME280;15376;48.540;9.268;2022-10-16T06:57:59;97533.72;;;14.31;100.00
5283;BME280;15376;48.540;9.268;2022-10-16T07:00:24;97524.47;;;14.41;100.00
5283;BME280;15376;48.540;9.268;2022-10-16T07:02:49;97524.50;;;14.54;100.00
5283;BME280;15376;48.540;9.268;2022-10-16T07:05:15;97535.81;;;14.56;100.00
5283;BME280;15376;48.540;9.268;2022-10-16T07:07:40;97549.97;;;14.56;100.00
5283;BME280;15376;48.540;9.268;2022-10-16T07:10:05;97550.41;;;14.60;100.00
5283;BME280;15376;48.540;9.268;2022-10-16T07:12:31;97557.38;;;14.61;100.00
5283;BME280;15376;48.540;9.268;2022-10-16T07:14:56;97547.72;;;14.73;100.00
5283;BME280;15376;48.540;9.268;2022-10-16T07:17:22;97563.09;;;14.84;100.00
5283;BME280;15376;48.540;9.268;2022-10-16T07:19:47;97548.91;;;14.90;100.00
5283;BME280;15376;48.540;9.268;2022-10-16T07:22:12;97562.47;;;15.02;100.00
5283;BME280;15376;48.540;9.268;2022-10-16T07:24:38;97561.78;;;15.20;100.00
5283;BME280;15376;48.540;9.268;2022-10-16T07:27:03;97565.28;;;15.27;100.00
5283;BME280;15376;48.540;9.268;2022-10-16T07:29:28;97570.16;;;15.43;100.00
5283;BME280;15376;48.540;9.268;2022-10-16T07:31:54;97566.03;;;15.54;100.00
5283;BME280;15376;48.540;9.268;2022-10-16T07:34:21;97576.31;;;15.50;100.00
5283;BME280;15376;48.540;9.268;2022-10-16T07:36:50;97535.00;;;15.33;100.00
5283;BME280;15376;48.540;9.268;2022-10-16T07:39:16;97578.31;;;15.68;100.00
5283;BME280;15376;48.540;9.268;2022-10-16T07:41:42;97550.78;;;15.54;100.00
5283;BME280;15376;48.540;9.268;2022-10-16T07:44:07;97594.75;;;15.78;100.00
5283;BME280;15376;48.540;9.268;2022-10-16T07:46:33;97598.25;;;15.79;100.00
5283;BME280;15376;48.540;9.268;2022-10-16T07:48:59;97584.47;;;15.75;100.00
5283;BME280;15376;48.540;9.268;2022-10-16T07:51:25;97611.50;;;16.05;100.00
5283;BME280;15376;48.540;9.268;2022-10-16T07:53:52;97607.31;;;16.22;100.00
5283;BME280;15376;48.540;9.268;2022-10-16T07:56:18;97613.34;;;16.43;100.00
5283;BME280;15376;48.540;9.268;2022-10-16T07:58:44;97589.72;;;16.58;100.00
5283;BME280;15376;48.540;9.268;2022-10-16T08:01:12;97595.78;;;16.78;100.00
5283;BME280;15376;48.540;9.268;2022-10-16T08:03:41;97604.19;;;17.07;100.00
5283;BME280;15376;48.540;9.268;2022-10-16T08:06:07;97603.38;;;17.24;100.00
5283;BME280;15376;48.540;9.268;2022-10-16T08:08:32;97619.69;;;17.23;100.00
5283;BME280;15376;48.540;9.268;2022-10-16T08:10:58;97623.91;;;17.19;100.00
5283;BME280;15376;48.540;9.268;2022-10-16T08:13:23;97619.63;;;17.11;100.00
5283;BME280;15376;48.540;9.268;2022-10-16T08:15:49;97628.50;;;17.12;100.00
5283;BME280;15376;48.540;9.268;2022-10-16T08:18:15;97625.97;;;17.17;100.00
5283;BME280;15376;48.540;9.268;2022-10-16T08:20:42;97609.88;;;17.35;100.00
5283;BME280;15376;48.540;9.268;2022-10-16T08:23:10;97607.22;;;17.53;100.00
5283;BME280;15376;48.540;9.268;2022-10-16T08:25:36;97615.03;;;17.73;100.00
5283;BME280;15376;48.540;9.268;2022-10-16T08:28:07;97623.03;;;17.98;100.00
5283;BME280;15376;48.540;9.268;2022-10-16T08:30:33;97600.19;;;17.71;100.00
5283;BME280;15376;48.540;9.268;2022-10-16T08:32:58;97621.50;;;18.02;100.00
5283;BME280;15376;48.540;9.268;2022-10-16T08:35:24;97635.44;;;18.41;100.00
5283;BME280;15376;48.540;9.268;2022-10-16T08:37:49;97633.97;;;18.56;100.00
5283;BME280;15376;48.540;9.268;2022-10-16T08:40:21;97637.34;;;18.93;100.00
5283;BME280;15376;48.540;9.268;2022-10-16T08:50:52;97635.25;;;19.19;100.00
5283;BME280;15376;48.540;9.268;2022-10-16T08:53:28;97643.78;;;19.04;100.00
5283;BME280;15376;48.540;9.268;2022-10-16T08:55:55;97649.06;;;18.99;100.00
5283;BME280;15376;48.540;9.268;2022-10-16T08:58:22;97653.03;;;19.08;100.00
5283;BME280;15376;48.540;9.268;2022-10-16T09:00:56;97651.63;;;19.06;100.00
5283;BME280;15376;48.540;9.268;2022-10-16T09:11:52;97639.34;;;18.98;100.00
5283;BME280;15376;48.540;9.268;2022-10-16T09:17:20;97643.91;;;19.44;100.00
5283;BME280;15376;48.540;9.268;2022-10-16T09:20:00;97663.94;;;20.12;100.00
5283;BME280;15376;48.540;9.268;2022-10-16T09:22:30;97665.41;;;21.05;100.00
5283;BME280;15376;48.540;9.268;2022-10-16T09:25:00;97668.44;;;21.80;100.00
5283;BME280;15376;48.540;9.268;2022-10-16T09:27:35;97674.34;;;21.60;99.65
5283;BME280;15376;48.540;9.268;2022-10-16T09:30:01;97679.81;;;21.44;99.97
5283;BME280;15376;48.540;9.268;2022-10-16T09:32:28;97668.78;;;21.67;97.70
5283;BME280;15376;48.540;9.268;2022-10-16T09:34:55;97670.41;;;21.29;100.00
5283;BME280;15376;48.540;9.268;2022-10-16T09:37:24;97668.91;;;20.88;100.00
5283;BME280;15376;48.540;9.268;2022-10-16T09:39:52;97675.09;;;20.44;100.00
5283;BME280;15376;48.540;9.268;2022-10-16T09:42:30;97662.44;;;20.44;100.00
5283;BME280;15376;48.540;9.268;2022-10-16T09:44:57;97656.84;;;20.34;100.00
5283;BME280;15376;48.540;9.268;2022-10-16T09:47:24;97674.44;;;20.65;100.00
5283;BME280;15376;48.540;9.268;2022-10-16T09:49:58;97672.06;;;20.85;100.00
5283;BME280;15376;48.540;9.268;2022-10-16T09:52:28;97677.13;;;20.65;100.00
5283;BME280;15376;48.540;9.268;2022-10-16T09:55:02;97678.38;;;20.46;100.00
5283;BME280;15376;48.540;9.268;2022-10-16T09:57:28;97679.03;;;20.24;100.00
5283;BME280;15376;48.540;9.268;2022-10-16T09:59:56;97673.81;;;20.06;100.00
5283;BME280;15376;48.540;9.268;2022-10-16T10:02:40;97667.44;;;19.84;100.00
5283;BME280;15376;48.540;9.268;2022-10-16T10:05:17;97667.19;;;19.74;100.00
5283;BME280;15376;48.540;9.268;2022-10-16T10:07:44;97665.25;;;19.57;100.00
5283;BME280;15376;48.540;9.268;2022-10-16T10:10:26;97685.75;;;19.58;100.00
5283;BME280;15376;48.540;9.268;2022-10-16T10:12:53;97687.59;;;19.70;100.00
5283;BME280;15376;48.540;9.268;2022-10-16T10:15:19;97681.13;;;19.94;100.00
5283;BME280;15376;48.540;9.268;2022-10-16T10:17:56;97681.50;;;19.86;100.00
5283;BME280;15376;48.540;9.268;2022-10-16T10:22:47;97675.06;;;19.63;100.00
5283;BME280;15376;48.540;9.268;2022-10-16T10:31:05;97673.47;;;20.03;100.00
5283;BME280;15376;48.540;9.268;2022-10-16T10:33:30;97679.84;;;20.65;100.00
5283;BME280;15376;48.540;9.268;2022-10-16T10:38:59;97667.97;;;21.67;100.00
5283;BME280;15376;48.540;9.268;2022-10-16T10:55:18;97647.88;;;21.41;100.00
5283;BME280;15376;48.540;9.268;2022-10-16T11:00:23;97649.94;;;21.34;91.89
5283;BME280;15376;48.540;9.268;2022-10-16T11:05:54;97658.28;;;21.15;95.46
5283;BME280;15376;48.540;9.268;2022-10-16T11:08:41;97665.56;;;21.15;94.60
5283;BME280;15376;48.540;9.268;2022-10-16T11:13:38;97669.31;;;21.47;83.00
5283;BME280;15376;48.540;9.268;2022-10-16T11:16:30;97657.47;;;21.70;78.44
5283;BME280;15376;48.540;9.268;2022-10-16T11:21:36;97641.53;;;21.90;80.42
5283;BME280;15376;48.540;9.268;2022-10-16T11:24:20;97655.94;;;21.96;80.58
5283;BME280;15376;48.540;9.268;2022-10-16T11:26:47;97656.56;;;22.03;81.76
5283;BME280;15376;48.540;9.268;2022-10-16T11:29:22;97651.22;;;21.86;77.78
5283;BME280;15376;48.540;9.268;2022-10-16T11:31:53;97637.59;;;21.59;75.98
5283;BME280;15376;48.540;9.268;2022-10-16T11:37:02;97646.63;;;21.87;76.96
5283;BME280;15376;48.540;9.268;2022-10-16T11:39:31;97652.53;;;21.84;77.27
5283;BME280;15376;48.540;9.268;2022-10-16T11:50:12;97622.88;;;21.50;77.88
5283;BME280;15376;48.540;9.268;2022-10-16T11:52:52;97637.88;;;21.41;78.76
5283;BME280;15376;48.540;9.268;2022-10-16T11:55:21;97648.84;;;21.51;79.66
5283;BME280;15376;48.540;9.268;2022-10-16T11:57:51;97644.03;;;21.37;78.62
5283;BME280;15376;48.540;9.268;2022-10-16T12:00:25;97642.72;;;21.39;76.12
5283;BME280;15376;48.540;9.268;2022-10-16T12:08:13;97642.47;;;21.57;75.50
5283;BME280;15376;48.540;9.268;2022-10-16T12:10:44;97643.94;;;21.48;78.19
5283;BME280;15376;48.540;9.268;2022-10-16T12:13:34;97639.22;;;21.22;81.02
5283;BME280;15376;48.540;9.268;2022-10-16T12:18:38;97642.00;;;21.66;73.95
5283;BME280;15376;48.540;9.268;2022-10-16T12:21:04;97638.31;;;21.72;74.51
5283;BME280;15376;48.540;9.268;2022-10-16T12:23:32;97640.28;;;21.98;75.10
5283;BME280;15376;48.540;9.268;2022-10-16T12:25:59;97621.84;;;21.95;74.01
5283;BME280;15376;48.540;9.268;2022-10-16T12:28:30;97636.56;;;22.04;73.91
5283;BME280;15376;48.540;9.268;2022-10-16T12:31:07;97638.19;;;22.05;75.29
5283;BME280;15376;48.540;9.268;2022-10-16T12:36:03;97638.88;;;21.95;74.51
5283;BME280;15376;48.540;9.268;2022-10-16T12:38:36;97644.09;;;21.58;78.26
5283;BME280;15376;48.540;9.268;2022-10-16T12:41:08;97641.06;;;21.77;75.69
5283;BME280;15376;48.540;9.268;2022-10-16T12:46:22;97630.91;;;22.27;70.57
5283;BME280;15376;48.540;9.268;2022-10-16T12:48:48;97642.28;;;22.29;70.31
5283;BME280;15376;48.540;9.268;2022-10-16T13:16:13;97636.00;;;22.24;73.59
5283;BME280;15376;48.540;9.268;2022-10-16T13:25:10;97657.03;;;22.44;72.90
5283;BME280;15376;48.540;9.268;2022-10-16T13:30:31;97656.53;;;22.47;74.25
5283;BME280;15376;48.540;9.268;2022-10-16T13:33:32;97662.75;;;22.20;77.89
5283;BME280;15376;48.540;9.268;2022-10-16T13:35:59;97659.16;;;22.37;70.89
5283;BME280;15376;48.540;9.268;2022-10-16T13:38:26;97634.66;;;22.26;70.16
5283;BME280;15376;48.540;9.268;2022-10-16T13:41:00;97659.75;;;22.00;74.30
5283;BME280;15376;48.540;9.268;2022-10-16T13:43:34;97659.72;;;21.95;74.34
5283;BME280;15376;48.540;9.268;2022-10-16T13:46:03;97655.31;;;21.89;75.66
5283;BME280;15376;48.540;9.268;2022-10-16T13:48:33;97660.72;;;21.89;74.74
5283;BME280;15376;48.540;9.268;2022-10-16T13:51:16;97652.72;;;22.21;72.43
5283;BME280;15376;48.540;9.268;2022-10-16T13:53:43;97654.38;;;22.22;76.70
5283;BME280;15376;48.540;9.268;2022-10-16T13:56:18;97650.91;;;22.26;76.30
5283;BME280;15376;48.540;9.268;2022-10-16T13:58:44;97661.16;;;22.24;79.80
5283;BME280;15376;48.540;9.268;2022-10-16T14:01:18;97652.59;;;22.33;73.77
5283;BME280;15376;48.540;9.268;2022-10-16T14:03:45;97648.13;;;22.21;74.02
5283;BME280;15376;48.540;9.268;2022-10-16T14:06:14;97660.78;;;22.38;75.91
5283;BME280;15376;48.540;9.268;2022-10-16T14:08:46;97649.91;;;22.33;75.95
5283;BME280;15376;48.540;9.268;2022-10-16T14:11:20;97642.41;;;22.18;73.37
5283;BME280;15376;48.540;9.268;2022-10-16T14:13:47;97664.19;;;22.28;74.52
5283;BME280;15376;48.540;9.268;2022-10-16T14:16:18;97667.13;;;22.26;77.39
5283;BME280;15376;48.540;9.268;2022-10-16T14:19:05;97663.88;;;22.24;80.26
5283;BME280;15376;48.540;9.268;2022-10-16T14:21:32;97662.03;;;22.30;80.65
5283;BME280;15376;48.540;9.268;2022-10-16T14:23:58;97654.63;;;22.47;73.78
5283;BME280;15376;48.540;9.268;2022-10-16T14:26:26;97659.00;;;22.75;74.01
5283;BME280;15376;48.540;9.268;2022-10-16T14:29:25;97666.13;;;22.86;77.67
5283;BME280;15376;48.540;9.268;2022-10-16T14:31:55;97654.66;;;22.74;81.36
5283;BME280;15376;48.540;9.268;2022-10-16T14:34:32;97661.53;;;22.60;80.56
5283;BME280;15376;48.540;9.268;2022-10-16T14:37:08;97664.56;;;22.63;80.54
5283;BME280;15376;48.540;9.268;2022-10-16T14:39:35;97662.16;;;22.67;82.30
5283;BME280;15376;48.540;9.268;2022-10-16T14:42:00;97663.69;;;22.58;83.68
5283;BME280;15376;48.540;9.268;2022-10-16T14:44:29;97662.03;;;22.57;84.27
5283;BME280;15376;48.540;9.268;2022-10-16T14:46:56;97658.53;;;22.56;74.40
5283;BME280;15376;48.540;9.268;2022-10-16T14:49:23;97661.03;;;22.63;72.64
5283;BME280;15376;48.540;9.268;2022-10-16T14:51:49;97665.94;;;22.66;73.63
5283;BME280;15376;48.540;9.268;2022-10-16T14:54:16;97672.94;;;22.62;77.79
5283;BME280;15376;48.540;9.268;2022-10-16T14:56:46;97669.41;;;22.61;80.46
5283;BME280;15376;48.540;9.268;2022-10-16T14:59:39;97678.75;;;22.49;83.19
5283;BME280;15376;48.540;9.268;2022-10-16T15:04:41;97679.91;;;22.09;88.02
5283;BME280;15376;48.540;9.268;2022-10-16T15:07:07;97680.03;;;21.98;90.63
5283;BME280;15376;48.540;9.268;2022-10-16T15:09:33;97684.97;;;21.84;93.35
5283;BME280;15376;48.540;9.268;2022-10-16T15:11:58;97683.19;;;21.73;94.44
5283;BME280;15376;48.540;9.268;2022-10-16T15:14:23;97686.06;;;21.66;94.82
5283;BME280;15376;48.540;9.268;2022-10-16T15:16:49;97695.03;;;21.50;99.37